UAL685 KIAH-KDTW
Flight info
| Callsign | UAL685 |
|---|---|
| Flight time | N/A |
| Altitude | 39000 |
| Route | INDIE8 TPAKK LIT J131 PXV WWODD HANBL3 |
| Aircraft | B737/M-SDE2E3FGHIRWXY/LB1 |
Departure
| Time | N/A |
|---|---|
| Airport | George Bush Intercontinental Airport (KIAH) |
Arrival
| Time | 2026-05-05 20:06 |
|---|---|
| Airport | Detroit Metropolitan Wayne County Airport (KDTW) |
| Time | Latitude | Longitude | Altitude | Speed | Heading |
|---|---|---|---|---|---|
| 2026-05-05 18:57 | 36.39701 | -89.91829 | 38839 ft | 497 kts | 36° |
| 2026-05-05 18:58 | 36.44391 | -89.85445 | 38849 ft | 498 kts | 36° |
| 2026-05-05 18:58 | 36.49027 | -89.79104 | 38854 ft | 499 kts | 37° |
| 2026-05-05 18:59 | 36.53699 | -89.72703 | 38854 ft | 499 kts | 37° |
| 2026-05-05 18:59 | 36.58376 | -89.66285 | 38847 ft | 500 kts | 37° |
| 2026-05-05 19:00 | 36.63045 | -89.59867 | 38844 ft | 500 kts | 37° |
| 2026-05-05 19:00 | 36.67717 | -89.53434 | 38855 ft | 501 kts | 37° |
| 2026-05-05 19:01 | 36.72370 | -89.47013 | 38848 ft | 501 kts | 37° |
| 2026-05-05 19:01 | 36.77038 | -89.40556 | 38848 ft | 501 kts | 37° |
| 2026-05-05 19:02 | 36.81708 | -89.34082 | 38849 ft | 501 kts | 37° |
| 2026-05-05 19:02 | 36.86333 | -89.27658 | 38865 ft | 500 kts | 37° |
| 2026-05-05 19:03 | 36.90984 | -89.21188 | 38871 ft | 500 kts | 37° |
| 2026-05-05 19:03 | 36.95624 | -89.14718 | 38873 ft | 499 kts | 37° |
| 2026-05-05 19:04 | 37.00264 | -89.08238 | 38878 ft | 499 kts | 37° |
| 2026-05-05 19:04 | 37.04900 | -89.01749 | 38870 ft | 499 kts | 37° |
| 2026-05-05 19:05 | 37.09501 | -88.95297 | 38861 ft | 499 kts | 37° |
| 2026-05-05 19:05 | 37.14121 | -88.88806 | 38855 ft | 499 kts | 37° |
| 2026-05-05 19:06 | 37.18749 | -88.82289 | 38859 ft | 500 kts | 37° |
| 2026-05-05 19:06 | 37.23373 | -88.75766 | 38861 ft | 500 kts | 37° |
| 2026-05-05 19:07 | 37.27965 | -88.69274 | 38861 ft | 500 kts | 37° |
| 2026-05-05 19:07 | 37.32580 | -88.62738 | 38863 ft | 500 kts | 37° |
| 2026-05-05 19:08 | 37.37197 | -88.56184 | 38871 ft | 500 kts | 37° |
| 2026-05-05 19:08 | 37.41819 | -88.49610 | 38870 ft | 500 kts | 37° |
| 2026-05-05 19:09 | 37.46429 | -88.43041 | 38871 ft | 500 kts | 37° |
| 2026-05-05 19:09 | 37.51012 | -88.36496 | 38865 ft | 500 kts | 37° |
| 2026-05-05 19:10 | 37.55611 | -88.29914 | 38872 ft | 500 kts | 37° |
| 2026-05-05 19:10 | 37.60208 | -88.23322 | 38862 ft | 499 kts | 37° |
| 2026-05-05 19:11 | 37.64782 | -88.16751 | 38875 ft | 498 kts | 37° |
| 2026-05-05 19:11 | 37.69345 | -88.10183 | 38880 ft | 498 kts | 37° |
| 2026-05-05 19:12 | 37.73887 | -88.03632 | 38874 ft | 498 kts | 37° |
| 2026-05-05 19:12 | 37.78452 | -87.97032 | 38868 ft | 498 kts | 37° |
| 2026-05-05 19:13 | 37.83012 | -87.90426 | 38877 ft | 498 kts | 37° |
| 2026-05-05 19:13 | 37.87569 | -87.83813 | 38875 ft | 498 kts | 37° |
| 2026-05-05 19:14 | 37.92211 | -87.77364 | 38868 ft | 486 kts | 29° |
| 2026-05-05 19:14 | 37.94763 | -87.74753 | 38879 ft | 470 kts | 20° |
| 2026-05-05 19:14 | 37.97539 | -87.72656 | 38888 ft | 459 kts | 15° |
| 2026-05-05 19:15 | 38.03145 | -87.68789 | 38874 ft | 459 kts | 14° |
| 2026-05-05 19:15 | 38.08780 | -87.64902 | 38885 ft | 462 kts | 15° |
| 2026-05-05 19:16 | 38.14444 | -87.60930 | 38876 ft | 466 kts | 15° |
| 2026-05-05 19:16 | 38.20125 | -87.56903 | 38865 ft | 468 kts | 15° |
| 2026-05-05 19:17 | 38.25772 | -87.52882 | 38872 ft | 468 kts | 15° |
| 2026-05-05 19:17 | 38.31455 | -87.48832 | 38864 ft | 468 kts | 15° |
| 2026-05-05 19:18 | 38.37126 | -87.44785 | 38860 ft | 466 kts | 15° |
| 2026-05-05 19:18 | 38.41833 | -87.41423 | 38873 ft | 466 kts | 15° |
| 2026-05-05 19:19 | 38.47500 | -87.37371 | 38869 ft | 467 kts | 15° |
| 2026-05-05 19:19 | 38.53173 | -87.33305 | 38860 ft | 466 kts | 15° |
| 2026-05-05 19:20 | 38.58823 | -87.29245 | 38866 ft | 465 kts | 15° |
| 2026-05-05 19:20 | 38.64459 | -87.25189 | 38862 ft | 463 kts | 15° |
| 2026-05-05 19:21 | 38.70058 | -87.21155 | 38860 ft | 462 kts | 15° |
| 2026-05-05 19:21 | 38.75663 | -87.17110 | 38868 ft | 462 kts | 15° |
| 2026-05-05 19:22 | 38.81241 | -87.13080 | 38874 ft | 464 kts | 16° |
| 2026-05-05 19:22 | 38.86896 | -87.08987 | 38855 ft | 467 kts | 16° |
| 2026-05-05 19:23 | 38.92552 | -87.04879 | 38858 ft | 468 kts | 16° |
| 2026-05-05 19:23 | 38.98227 | -87.00749 | 38867 ft | 468 kts | 16° |
| 2026-05-05 19:24 | 39.03911 | -86.96607 | 38862 ft | 469 kts | 16° |
| 2026-05-05 19:24 | 39.09597 | -86.92458 | 38863 ft | 471 kts | 16° |
| 2026-05-05 19:25 | 39.15256 | -86.88318 | 38860 ft | 472 kts | 16° |
| 2026-05-05 19:25 | 39.20983 | -86.84122 | 38872 ft | 472 kts | 16° |
| 2026-05-05 19:26 | 39.26703 | -86.79921 | 38857 ft | 472 kts | 16° |
| 2026-05-05 19:26 | 39.32415 | -86.75717 | 38857 ft | 471 kts | 16° |
| 2026-05-05 19:27 | 39.38103 | -86.71523 | 38857 ft | 470 kts | 16° |
| 2026-05-05 19:27 | 39.43741 | -86.67360 | 38866 ft | 469 kts | 16° |
| 2026-05-05 19:28 | 39.49406 | -86.63171 | 38871 ft | 468 kts | 16° |
| 2026-05-05 19:28 | 39.55068 | -86.58976 | 38872 ft | 468 kts | 17° |
| 2026-05-05 19:29 | 39.60714 | -86.54784 | 38873 ft | 467 kts | 17° |
| 2026-05-05 19:29 | 39.66349 | -86.50592 | 38868 ft | 467 kts | 17° |
| 2026-05-05 19:30 | 39.71990 | -86.46388 | 38863 ft | 467 kts | 17° |
| 2026-05-05 19:30 | 39.77593 | -86.42202 | 38854 ft | 467 kts | 17° |
| 2026-05-05 19:31 | 39.83228 | -86.37986 | 38854 ft | 467 kts | 17° |
| 2026-05-05 19:31 | 39.88788 | -86.33473 | 38851 ft | 482 kts | 26° |
| 2026-05-05 19:32 | 39.93946 | -86.27740 | 38870 ft | 489 kts | 30° |
| 2026-05-05 19:32 | 39.99054 | -86.21904 | 38869 ft | 487 kts | 28° |
| 2026-05-05 19:33 | 40.04195 | -86.16238 | 38869 ft | 486 kts | 28° |
| 2026-05-05 19:33 | 40.09388 | -86.10583 | 38873 ft | 485 kts | 27° |
| 2026-05-05 19:34 | 40.14631 | -86.05048 | 38878 ft | 484 kts | 27° |
| 2026-05-05 19:35 | 40.22498 | -85.96760 | 38933 ft | 486 kts | 27° |
| 2026-05-05 19:35 | 40.27752 | -85.91180 | 38985 ft | 486 kts | 27° |
| 2026-05-05 19:36 | 40.33011 | -85.85575 | 39007 ft | 487 kts | 27° |
| 2026-05-05 19:36 | 40.38273 | -85.79955 | 39019 ft | 487 kts | 27° |
| 2026-05-05 19:37 | 40.43524 | -85.74336 | 38868 ft | 486 kts | 27° |
| 2026-05-05 19:37 | 40.48719 | -85.68764 | 38874 ft | 484 kts | 27° |
| 2026-05-05 19:38 | 40.53929 | -85.63168 | 38873 ft | 483 kts | 27° |
| 2026-05-05 19:38 | 40.59135 | -85.57564 | 38875 ft | 482 kts | 27° |
| 2026-05-05 19:39 | 40.64326 | -85.51964 | 38877 ft | 481 kts | 27° |
| 2026-05-05 19:39 | 40.69459 | -85.46367 | 38892 ft | 484 kts | 29° |
| 2026-05-05 19:40 | 40.74506 | -85.40442 | 38893 ft | 487 kts | 31° |
| 2026-05-05 19:40 | 40.79570 | -85.34430 | 38501 ft | 495 kts | 30° |
| 2026-05-05 19:40 | 40.82141 | -85.31404 | 37850 ft | 495 kts | 30° |
| 2026-05-05 19:41 | 40.84709 | -85.28384 | 37205 ft | 493 kts | 31° |
| 2026-05-05 19:41 | 40.87263 | -85.25360 | 36546 ft | 494 kts | 33° |
| 2026-05-05 19:41 | 40.89649 | -85.22131 | 35894 ft | 500 kts | 38° |
| 2026-05-05 19:41 | 40.91942 | -85.18635 | 35150 ft | 504 kts | 41° |
| 2026-05-05 19:42 | 40.94184 | -85.15044 | 34356 ft | 507 kts | 42° |
| 2026-05-05 19:42 | 40.96426 | -85.11433 | 33465 ft | 509 kts | 43° |
| 2026-05-05 19:42 | 40.98702 | -85.07815 | 32517 ft | 511 kts | 43° |
| 2026-05-05 19:42 | 41.00989 | -85.04234 | 31852 ft | 507 kts | 43° |
| 2026-05-05 19:43 | 41.03265 | -85.00704 | 31235 ft | 502 kts | 43° |
| 2026-05-05 19:43 | 41.05531 | -84.97210 | 30628 ft | 498 kts | 44° |
| 2026-05-05 19:43 | 41.07779 | -84.93748 | 30031 ft | 494 kts | 44° |
| 2026-05-05 19:43 | 41.10018 | -84.90293 | 29326 ft | 491 kts | 45° |
| 2026-05-05 19:44 | 41.12233 | -84.86865 | 28656 ft | 486 kts | 45° |
| 2026-05-05 19:44 | 41.14419 | -84.83476 | 28015 ft | 481 kts | 45° |
| 2026-05-05 19:44 | 41.16588 | -84.80118 | 27384 ft | 476 kts | 44° |
| 2026-05-05 19:44 | 41.18823 | -84.76905 | 26762 ft | 470 kts | 41° |
| 2026-05-05 19:45 | 41.21099 | -84.73828 | 26154 ft | 465 kts | 40° |
| 2026-05-05 19:45 | 41.23342 | -84.70846 | 25560 ft | 461 kts | 40° |
| 2026-05-05 19:45 | 41.25590 | -84.67841 | 24948 ft | 457 kts | 41° |
| 2026-05-05 19:45 | 41.27816 | -84.64827 | 24322 ft | 454 kts | 41° |
| 2026-05-05 19:46 | 41.30010 | -84.61830 | 23705 ft | 451 kts | 42° |
| 2026-05-05 19:46 | 41.32188 | -84.58841 | 23043 ft | 448 kts | 42° |
| 2026-05-05 19:46 | 41.34334 | -84.55895 | 22780 ft | 435 kts | 42° |
| 2026-05-05 19:46 | 41.36407 | -84.53048 | 22659 ft | 424 kts | 42° |
| 2026-05-05 19:47 | 41.38473 | -84.50219 | 22562 ft | 430 kts | 42° |
| 2026-05-05 19:47 | 41.40577 | -84.47340 | 22450 ft | 437 kts | 42° |
| 2026-05-05 19:47 | 41.42702 | -84.44424 | 22315 ft | 438 kts | 43° |
| 2026-05-05 19:47 | 41.44907 | -84.41670 | 22181 ft | 431 kts | 32° |
| 2026-05-05 19:48 | 41.47391 | -84.39466 | 22097 ft | 426 kts | 27° |
| 2026-05-05 19:48 | 41.49924 | -84.37411 | 21955 ft | 425 kts | 26° |
| 2026-05-05 19:48 | 41.52456 | -84.35388 | 21845 ft | 424 kts | 26° |
| 2026-05-05 19:48 | 41.54977 | -84.33351 | 21728 ft | 424 kts | 26° |
| 2026-05-05 19:49 | 41.57487 | -84.31288 | 21616 ft | 424 kts | 27° |
| 2026-05-05 19:49 | 41.59151 | -84.29904 | 21532 ft | 425 kts | 27° |
| 2026-05-05 19:49 | 41.62471 | -84.27120 | 21389 ft | 425 kts | 27° |
| 2026-05-05 19:49 | 41.64975 | -84.25009 | 21266 ft | 426 kts | 27° |
| 2026-05-05 19:50 | 41.67487 | -84.22890 | 21157 ft | 426 kts | 27° |
| 2026-05-05 19:50 | 41.70002 | -84.20769 | 21044 ft | 426 kts | 27° |
| 2026-05-05 19:50 | 41.72511 | -84.18651 | 20924 ft | 427 kts | 28° |
| 2026-05-05 19:50 | 41.74881 | -84.16218 | 20517 ft | 438 kts | 41° |
| 2026-05-05 19:51 | 41.77001 | -84.13254 | 19956 ft | 439 kts | 45° |
| 2026-05-05 19:51 | 41.79032 | -84.10217 | 19387 ft | 434 kts | 46° |
| 2026-05-05 19:51 | 41.80999 | -84.07246 | 18830 ft | 429 kts | 46° |
| 2026-05-05 19:51 | 41.82978 | -84.04291 | 18283 ft | 424 kts | 46° |
| 2026-05-05 19:52 | 41.84955 | -84.01385 | 17672 ft | 420 kts | 45° |
| 2026-05-05 19:52 | 41.86928 | -83.98515 | 17093 ft | 414 kts | 45° |
| 2026-05-05 19:52 | 41.88867 | -83.95708 | 16671 ft | 406 kts | 45° |
| 2026-05-05 19:52 | 41.90780 | -83.92943 | 16159 ft | 401 kts | 45° |
| 2026-05-05 19:53 | 41.92670 | -83.90209 | 15651 ft | 398 kts | 45° |
| 2026-05-05 19:53 | 41.94547 | -83.87489 | 15147 ft | 395 kts | 45° |
| 2026-05-05 19:53 | 41.96412 | -83.84784 | 14639 ft | 393 kts | 45° |
| 2026-05-05 19:53 | 41.98275 | -83.82091 | 14138 ft | 392 kts | 44° |
| 2026-05-05 19:54 | 42.00110 | -83.79464 | 13631 ft | 389 kts | 44° |
| 2026-05-05 19:54 | 42.01962 | -83.76816 | 13074 ft | 386 kts | 44° |
| 2026-05-05 19:54 | 42.03802 | -83.74183 | 12546 ft | 383 kts | 44° |
| 2026-05-05 19:54 | 42.05212 | -83.72161 | 12159 ft | 380 kts | 44° |
| 2026-05-05 19:55 | 42.07014 | -83.69573 | 11663 ft | 377 kts | 44° |
| 2026-05-05 19:55 | 42.08793 | -83.67016 | 11181 ft | 372 kts | 44° |
| 2026-05-05 19:55 | 42.10557 | -83.64511 | 10774 ft | 365 kts | 42° |
| 2026-05-05 19:55 | 42.12341 | -83.62126 | 10437 ft | 357 kts | 41° |
| 2026-05-05 19:56 | 42.14099 | -83.59815 | 10104 ft | 350 kts | 40° |
| 2026-05-05 19:56 | 42.15814 | -83.57545 | 9943 ft | 338 kts | 41° |
| 2026-05-05 19:56 | 42.17449 | -83.55362 | 9760 ft | 323 kts | 41° |
| 2026-05-05 19:56 | 42.19075 | -83.53255 | 9184 ft | 318 kts | 34° |
| 2026-05-05 19:57 | 42.20903 | -83.51743 | 8831 ft | 300 kts | 21° |
| 2026-05-05 19:57 | 42.22108 | -83.50901 | 8663 ft | 288 kts | 20° |
| 2026-05-05 19:57 | 42.24386 | -83.49284 | 8288 ft | 271 kts | 21° |
| 2026-05-05 19:57 | 42.26010 | -83.48111 | 8020 ft | 259 kts | 20° |
| 2026-05-05 19:58 | 42.27591 | -83.47136 | 7929 ft | 240 kts | 15° |
| 2026-05-05 19:58 | 42.29082 | -83.46099 | 7495 ft | 241 kts | 21° |
| 2026-05-05 19:58 | 42.30516 | -83.44984 | 7133 ft | 235 kts | 22° |
| 2026-05-05 19:58 | 42.31919 | -83.43902 | 6821 ft | 229 kts | 21° |
| 2026-05-05 19:59 | 42.33289 | -83.42864 | 6524 ft | 224 kts | 21° |
| 2026-05-05 19:59 | 42.34656 | -83.41841 | 6247 ft | 224 kts | 20° |
| 2026-05-05 19:59 | 42.36020 | -83.40825 | 5950 ft | 223 kts | 21° |
| 2026-05-05 19:59 | 42.37355 | -83.39830 | 5642 ft | 217 kts | 21° |
| 2026-05-05 20:00 | 42.38535 | -83.38589 | 5330 ft | 220 kts | 53° |
| 2026-05-05 20:00 | 42.38893 | -83.36644 | 5056 ft | 213 kts | 101° |
| 2026-05-05 20:00 | 42.38354 | -83.34926 | 4849 ft | 199 kts | 124° |
| 2026-05-05 20:00 | 42.37612 | -83.33197 | 4142 ft | 214 kts | 122° |
| 2026-05-05 20:01 | 42.36857 | -83.31419 | 3467 ft | 219 kts | 123° |
| 2026-05-05 20:01 | 42.35874 | -83.30047 | 3293 ft | 190 kts | 156° |
| 2026-05-05 20:01 | 42.35097 | -83.29657 | 3248 ft | 174 kts | 173° |
| 2026-05-05 20:01 | 42.33627 | -83.29597 | 3013 ft | 148 kts | 191° |
| 2026-05-05 20:02 | 42.32951 | -83.29655 | 2924 ft | 137 kts | 188° |
| 2026-05-05 20:02 | 42.32059 | -83.29942 | 2766 ft | 128 kts | 210° |
| 2026-05-05 20:02 | 42.30989 | -83.30575 | 2539 ft | 128 kts | 210° |
| 2026-05-05 20:02 | 42.30449 | -83.30927 | 2422 ft | 127 kts | 211° |
| 2026-05-05 20:03 | 42.29667 | -83.31469 | 2243 ft | 126 kts | 212° |
| 2026-05-05 20:03 | 42.28894 | -83.32023 | 2087 ft | 126 kts | 213° |
| 2026-05-05 20:03 | 42.28115 | -83.32590 | 1917 ft | 127 kts | 214° |
| 2026-05-05 20:03 | 42.27350 | -83.33150 | 1747 ft | 125 kts | 214° |
| 2026-05-05 20:04 | 42.26578 | -83.33717 | 1563 ft | 126 kts | 214° |
| 2026-05-05 20:04 | 42.25829 | -83.34271 | 1419 ft | 122 kts | 213° |
| 2026-05-05 20:04 | 42.25072 | -83.34820 | 1225 ft | 123 kts | 213° |
| 2026-05-05 20:04 | 42.24334 | -83.35377 | 1085 ft | 120 kts | 213° |
| 2026-05-05 20:05 | 42.23610 | -83.35904 | 916 ft | 122 kts | 211° |
| 2026-05-05 20:05 | 42.22864 | -83.36452 | 748 ft | 121 kts | 212° |
| 2026-05-05 20:05 | 42.22157 | -83.36978 | 646 ft | 105 kts | 207° |
| 2026-05-05 20:05 | 42.21642 | -83.37352 | 645 ft | 63 kts | 208° |
| 2026-05-05 20:06 | 42.21371 | -83.37551 | 646 ft | 34 kts | 208° |
| 2026-05-05 20:06 | 42.21181 | -83.37687 | 646 ft | 29 kts | 202° |
| 2026-05-05 20:06 | 42.20991 | -83.37743 | 646 ft | 27 kts | 172° |
| 2026-05-05 20:06 | 42.20918 | -83.37633 | 649 ft | 17 kts | 39° |
| 2026-05-05 20:07 | 42.21021 | -83.37559 | 646 ft | 16 kts | 27° |
| 2026-05-05 20:07 | 42.21037 | -83.37427 | 647 ft | 16 kts | 118° |
| 2026-05-05 20:07 | 42.20983 | -83.37301 | 646 ft | 15 kts | 120° |
| 2026-05-05 20:07 | 42.20933 | -83.37180 | 646 ft | 15 kts | 119° |
| 2026-05-05 20:08 | 42.20886 | -83.37063 | 646 ft | 14 kts | 118° |
| 2026-05-05 20:08 | 42.20840 | -83.36946 | 646 ft | 15 kts | 118° |
| 2026-05-05 20:08 | 42.20790 | -83.36822 | 645 ft | 15 kts | 118° |
| 2026-05-05 20:08 | 42.20735 | -83.36686 | 645 ft | 18 kts | 119° |
| 2026-05-05 20:09 | 42.20781 | -83.36559 | 647 ft | 17 kts | 29° |
| 2026-05-05 20:09 | 42.20893 | -83.36475 | 646 ft | 20 kts | 29° |
| 2026-05-05 20:09 | 42.21019 | -83.36380 | 644 ft | 21 kts | 29° |
| 2026-05-05 20:09 | 42.21141 | -83.36287 | 644 ft | 20 kts | 30° |
| 2026-05-05 20:10 | 42.21263 | -83.36201 | 645 ft | 19 kts | 29° |
| 2026-05-05 20:10 | 42.21379 | -83.36114 | 645 ft | 19 kts | 29° |
| 2026-05-05 20:10 | 42.21490 | -83.36032 | 646 ft | 18 kts | 28° |
| 2026-05-05 20:10 | 42.21610 | -83.35945 | 644 ft | 23 kts | 28° |
| 2026-05-05 20:11 | 42.21755 | -83.35838 | 643 ft | 23 kts | 28° |
| 2026-05-05 20:11 | 42.21895 | -83.35737 | 644 ft | 22 kts | 28° |
| 2026-05-05 20:11 | 42.22030 | -83.35638 | 645 ft | 22 kts | 29° |
| 2026-05-05 20:11 | 42.22163 | -83.35540 | 646 ft | 22 kts | 28° |
| 2026-05-05 20:12 | 42.22302 | -83.35435 | 646 ft | 24 kts | 30° |
| 2026-05-05 20:12 | 42.22442 | -83.35329 | 647 ft | 23 kts | 28° |
| 2026-05-05 20:12 | 42.22580 | -83.35233 | 646 ft | 22 kts | 27° |
| 2026-05-05 20:12 | 42.22694 | -83.35142 | 647 ft | 14 kts | 53° |
| 2026-05-05 20:13 | 42.22667 | -83.35031 | 645 ft | 10 kts | 118° |
| 2026-05-05 20:13 | 42.22613 | -83.34973 | 645 ft | 9 kts | 142° |
| 2026-05-05 20:13 | 42.22588 | -83.34924 | 646 ft | 3 kts | 116° |
| 2026-05-05 20:13 | 42.22584 | -83.34912 | 646 ft | 1 kts | 120° |
| 2026-05-05 20:14 | 42.22582 | -83.34908 | 646 ft | 0 kts | 120° |